sensor_id;sensor_type;location;lat;lon;timestamp;pressure;altitude;pressure_sealevel;temperature;humidity
18436;BME280;9346;52.006;4.720;2022-12-22T00:01:49;100347.69;;;9.76;100.00
18436;BME280;9346;52.006;4.720;2022-12-22T00:04:33;100346.34;;;9.73;100.00
18436;BME280;9346;52.006;4.720;2022-12-22T00:07:19;100344.41;;;9.74;100.00
18436;BME280;9346;52.006;4.720;2022-12-22T00:10:04;100348.78;;;9.75;100.00
18436;BME280;9346;52.006;4.720;2022-12-22T00:12:48;100348.53;;;9.76;100.00
18436;BME280;9346;52.006;4.720;2022-12-22T00:15:33;100347.41;;;9.77;100.00
18436;BME280;9346;52.006;4.720;2022-12-22T00:18:18;100337.25;;;9.78;100.00
18436;BME280;9346;52.006;4.720;2022-12-22T00:21:02;100343.56;;;9.78;100.00
18436;BME280;9346;52.006;4.720;2022-12-22T00:23:49;100342.75;;;9.78;100.00
18436;BME280;9346;52.006;4.720;2022-12-22T00:26:34;100341.91;;;9.77;100.00
18436;BME280;9346;52.006;4.720;2022-12-22T00:29:19;100336.41;;;9.77;100.00
18436;BME280;9346;52.006;4.720;2022-12-22T00:32:04;100327.88;;;9.79;100.00
18436;BME280;9346;52.006;4.720;2022-12-22T00:34:49;100327.59;;;9.80;100.00
18436;BME280;9346;52.006;4.720;2022-12-22T00:37:35;100318.53;;;9.80;100.00
18436;BME280;9346;52.006;4.720;2022-12-22T00:40:22;100325.13;;;9.79;100.00
18436;BME280;9346;52.006;4.720;2022-12-22T00:43:07;100311.66;;;9.77;100.00
18436;BME280;9346;52.006;4.720;2022-12-22T00:45:51;100304.22;;;9.78;100.00
18436;BME280;9346;52.006;4.720;2022-12-22T00:48:36;100309.75;;;9.78;100.00
18436;BME280;9346;52.006;4.720;2022-12-22T00:51:22;100301.75;;;9.76;100.00
18436;BME280;9346;52.006;4.720;2022-12-22T00:54:07;100300.66;;;9.77;100.00
18436;BME280;9346;52.006;4.720;2022-12-22T00:56:53;100291.59;;;9.77;100.00
18436;BME280;9346;52.006;4.720;2022-12-22T00:59:38;100281.69;;;9.76;100.00
18436;BME280;9346;52.006;4.720;2022-12-22T01:02:22;100278.13;;;9.75;100.00
18436;BME280;9346;52.006;4.720;2022-12-22T01:05:07;100278.94;;;9.76;100.00
18436;BME280;9346;52.006;4.720;2022-12-22T01:07:51;100280.03;;;9.75;100.00
18436;BME280;9346;52.006;4.720;2022-12-22T01:10:35;100281.16;;;9.74;100.00
18436;BME280;9346;52.006;4.720;2022-12-22T01:13:21;100269.31;;;9.73;100.00
18436;BME280;9346;52.006;4.720;2022-12-22T01:16:09;100270.97;;;9.74;100.00
18436;BME280;9346;52.006;4.720;2022-12-22T01:18:52;100274.53;;;9.75;100.00
18436;BME280;9346;52.006;4.720;2022-12-22T01:21:36;100276.47;;;9.74;100.00
18436;BME280;9346;52.006;4.720;2022-12-22T01:24:20;100265.75;;;9.73;100.00
18436;BME280;9346;52.006;4.720;2022-12-22T01:27:07;100267.41;;;9.74;100.00
18436;BME280;9346;52.006;4.720;2022-12-22T01:29:53;100270.97;;;9.74;100.00
18436;BME280;9346;52.006;4.720;2022-12-22T01:32:37;100263.00;;;9.73;100.00
18436;BME280;9346;52.006;4.720;2022-12-22T01:35:29;100270.16;;;9.74;100.00
18436;BME280;9346;52.006;4.720;2022-12-22T01:38:13;100267.94;;;9.76;100.00
18436;BME280;9346;52.006;4.720;2022-12-22T01:40:58;100264.91;;;9.77;100.00
18436;BME280;9346;52.006;4.720;2022-12-22T01:43:43;100268.47;;;9.78;100.00
18436;BME280;9346;52.006;4.720;2022-12-22T01:46:29;100268.19;;;9.79;100.00
18436;BME280;9346;52.006;4.720;2022-12-22T01:49:17;100262.41;;;9.81;100.00
18436;BME280;9346;52.006;4.720;2022-12-22T01:52:04;100262.13;;;9.82;100.00
18436;BME280;9346;52.006;4.720;2022-12-22T01:54:49;100260.75;;;9.85;100.00
18436;BME280;9346;52.006;4.720;2022-12-22T01:57:35;100258.53;;;9.87;100.00
18436;BME280;9346;52.006;4.720;2022-12-22T02:00:20;100255.50;;;9.88;100.00
18436;BME280;9346;52.006;4.720;2022-12-22T02:03:14;100272.53;;;9.95;100.00
18436;BME280;9346;52.006;4.720;2022-12-22T02:06:08;100255.72;;;9.97;100.00
18436;BME280;9346;52.006;4.720;2022-12-22T02:09:05;100250.50;;;9.95;100.00
18436;BME280;9346;52.006;4.720;2022-12-22T02:11:57;100254.09;;;9.96;100.00
18436;BME280;9346;52.006;4.720;2022-12-22T02:14:49;100248.03;;;9.94;100.00
18436;BME280;9346;52.006;4.720;2022-12-22T02:17:43;100241.44;;;9.95;100.00
18436;BME280;9346;52.006;4.720;2022-12-22T02:20:39;100243.09;;;9.96;100.00
18436;BME280;9346;52.006;4.720;2022-12-22T02:23:39;100240.84;;;9.98;100.00
18436;BME280;9346;52.006;4.720;2022-12-22T02:26:29;100239.75;;;9.99;100.00
18436;BME280;9346;52.006;4.720;2022-12-22T02:29:16;100237.00;;;9.99;100.00
18436;BME280;9346;52.006;4.720;2022-12-22T02:32:01;100242.75;;;10.02;100.00
18436;BME280;9346;52.006;4.720;2022-12-22T02:34:45;100241.13;;;10.01;100.00
18436;BME280;9346;52.006;4.720;2022-12-22T02:37:38;100226.53;;;10.01;100.00
18436;BME280;9346;52.006;4.720;2022-12-22T02:40:29;100219.69;;;9.98;100.00
18436;BME280;9346;52.006;4.720;2022-12-22T02:43:22;100215.25;;;9.97;100.00
18436;BME280;9346;52.006;4.720;2022-12-22T02:46:13;100210.59;;;9.98;100.00
18436;BME280;9346;52.006;4.720;2022-12-22T02:49:02;100203.19;;;9.98;100.00
18436;BME280;9346;52.006;4.720;2022-12-22T02:51:53;100196.28;;;10.01;100.00
18436;BME280;9346;52.006;4.720;2022-12-22T02:54:40;100197.91;;;10.02;100.00
18436;BME280;9346;52.006;4.720;2022-12-22T02:57:26;100193.53;;;10.01;100.00
18436;BME280;9346;52.006;4.720;2022-12-22T03:00:12;100192.97;;;9.99;100.00
18436;BME280;9346;52.006;4.720;2022-12-22T03:02:56;100181.97;;;9.99;100.00
18436;BME280;9346;52.006;4.720;2022-12-22T03:05:40;100184.72;;;9.99;100.00
18436;BME280;9346;52.006;4.720;2022-12-22T03:08:24;100188.06;;;9.96;100.00
18436;BME280;9346;52.006;4.720;2022-12-22T03:11:08;100186.94;;;9.97;100.00
18436;BME280;9346;52.006;4.720;2022-12-22T03:13:52;100186.66;;;9.98;100.00
18436;BME280;9346;52.006;4.720;2022-12-22T03:16:38;100181.69;;;10.00;100.00
18436;BME280;9346;52.006;4.720;2022-12-22T03:19:22;100184.69;;;10.04;100.00
18436;BME280;9346;52.006;4.720;2022-12-22T03:22:06;100185.53;;;10.04;100.00
18436;BME280;9346;52.006;4.720;2022-12-22T03:24:50;100185.25;;;10.06;100.00
18436;BME280;9346;52.006;4.720;2022-12-22T03:27:34;100188.00;;;10.06;100.00
18436;BME280;9346;52.006;4.720;2022-12-22T03:30:01;100189.38;;;10.08;100.00
18436;BME280;9346;52.006;4.720;2022-12-22T03:32:30;100182.75;;;10.09;100.00
18436;BME280;9346;52.006;4.720;2022-12-22T03:34:56;100176.97;;;10.11;100.00
18436;BME280;9346;52.006;4.720;2022-12-22T03:37:23;100175.31;;;10.10;100.00
18436;BME280;9346;52.006;4.720;2022-12-22T03:39:51;100166.81;;;10.06;100.00
18436;BME280;9346;52.006;4.720;2022-12-22T03:42:18;100164.31;;;10.05;100.00
18436;BME280;9346;52.006;4.720;2022-12-22T03:45:02;100169.81;;;10.05;100.00
18436;BME280;9346;52.006;4.720;2022-12-22T03:47:48;100167.06;;;10.05;100.00
18436;BME280;9346;52.006;4.720;2022-12-22T03:50:15;100165.72;;;10.07;100.00
18436;BME280;9346;52.006;4.720;2022-12-22T03:52:42;100164.31;;;10.10;100.00
18436;BME280;9346;52.006;4.720;2022-12-22T03:55:09;100162.91;;;10.12;100.00
18436;BME280;9346;52.006;4.720;2022-12-22T03:57:35;100163.75;;;10.13;100.00
18436;BME280;9346;52.006;4.720;2022-12-22T04:00:03;100178.84;;;10.15;100.00
18436;BME280;9346;52.006;4.720;2022-12-22T04:02:30;100178.03;;;10.15;100.00
18436;BME280;9346;52.006;4.720;2022-12-22T04:04:59;100186.28;;;10.15;100.00
18436;BME280;9346;52.006;4.720;2022-12-22T04:07:25;100192.63;;;10.15;100.00
18436;BME280;9346;52.006;4.720;2022-12-22T04:09:52;100186.00;;;10.16;100.00
18436;BME280;9346;52.006;4.720;2022-12-22T04:12:36;100180.50;;;10.16;100.00
18436;BME280;9346;52.006;4.720;2022-12-22T04:15:21;100189.59;;;10.17;100.00
18436;BME280;9346;52.006;4.720;2022-12-22T04:17:49;100191.22;;;10.18;100.00
18436;BME280;9346;52.006;4.720;2022-12-22T04:20:18;100190.13;;;10.19;100.00
18436;BME280;9346;52.006;4.720;2022-12-22T04:22:45;100196.72;;;10.18;100.00
18436;BME280;9346;52.006;4.720;2022-12-22T04:25:13;100196.72;;;10.18;100.00
18436;BME280;9346;52.006;4.720;2022-12-22T04:27:40;100186.81;;;10.17;100.00
18436;BME280;9346;52.006;4.720;2022-12-22T04:30:08;100186.81;;;10.17;100.00
18436;BME280;9346;52.006;4.720;2022-12-22T04:32:35;100189.59;;;10.17;100.00
18436;BME280;9346;52.006;4.720;2022-12-22T04:35:02;100197.56;;;10.13;100.00
18436;BME280;9346;52.006;4.720;2022-12-22T04:37:31;100200.09;;;10.10;100.00
18436;BME280;9346;52.006;4.720;2022-12-22T04:39:58;100201.22;;;10.09;100.00
18436;BME280;9346;52.006;4.720;2022-12-22T04:42:25;100196.78;;;10.08;100.00
18436;BME280;9346;52.006;4.720;2022-12-22T04:44:52;100198.75;;;10.07;100.00
18436;BME280;9346;52.006;4.720;2022-12-22T04:47:19;100196.25;;;10.06;100.00
18436;BME280;9346;52.006;4.720;2022-12-22T04:49:47;100200.09;;;10.05;100.00
18436;BME280;9346;52.006;4.720;2022-12-22T04:52:14;100202.84;;;10.05;100.00
18436;BME280;9346;52.006;4.720;2022-12-22T04:54:42;100199.28;;;10.04;100.00
18436;BME280;9346;52.006;4.720;2022-12-22T04:57:10;100197.63;;;10.03;100.00
18436;BME280;9346;52.006;4.720;2022-12-22T04:59:37;100195.69;;;10.04;100.00
18436;BME280;9346;52.006;4.720;2022-12-22T05:02:04;100199.56;;;10.03;100.00
18436;BME280;9346;52.006;4.720;2022-12-22T05:04:40;100205.88;;;10.03;100.00
18436;BME280;9346;52.006;4.720;2022-12-22T05:07:08;100202.59;;;10.01;100.00
18436;BME280;9346;52.006;4.720;2022-12-22T05:09:35;100217.72;;;9.99;100.00
18436;BME280;9346;52.006;4.720;2022-12-22T05:12:05;100209.75;;;9.97;100.00
18436;BME280;9346;52.006;4.720;2022-12-22T05:14:52;100219.69;;;9.93;100.00
18436;BME280;9346;52.006;4.720;2022-12-22T05:17:19;100218.06;;;9.92;100.00
18436;BME280;9346;52.006;4.720;2022-12-22T05:19:46;100224.13;;;9.89;100.00
18436;BME280;9346;52.006;4.720;2022-12-22T05:22:13;100225.53;;;9.87;100.00
18436;BME280;9346;52.006;4.720;2022-12-22T05:24:40;100227.19;;;9.83;100.00
18436;BME280;9346;52.006;4.720;2022-12-22T05:27:09;100234.91;;;9.81;100.00
18436;BME280;9346;52.006;4.720;2022-12-22T05:29:36;100233.28;;;9.80;100.00
18436;BME280;9346;52.006;4.720;2022-12-22T05:32:04;100239.88;;;9.79;100.00
18436;BME280;9346;52.006;4.720;2022-12-22T05:34:31;100251.69;;;9.79;100.00
18436;BME280;9346;52.006;4.720;2022-12-22T05:36:58;100254.19;;;9.76;100.00
18436;BME280;9346;52.006;4.720;2022-12-22T05:39:25;100244.84;;;9.72;100.00
18436;BME280;9346;52.006;4.720;2022-12-22T05:41:51;100265.22;;;9.71;100.00
18436;BME280;9346;52.006;4.720;2022-12-22T05:44:19;100263.56;;;9.70;100.00
18436;BME280;9346;52.006;4.720;2022-12-22T05:46:49;100261.69;;;9.65;100.00
18436;BME280;9346;52.006;4.720;2022-12-22T05:49:16;100252.03;;;9.63;100.00
18436;BME280;9346;52.006;4.720;2022-12-22T05:51:42;100250.41;;;9.62;100.00
18436;BME280;9346;52.006;4.720;2022-12-22T05:54:10;100246.03;;;9.61;100.00
18436;BME280;9346;52.006;4.720;2022-12-22T05:56:37;100255.63;;;9.58;100.00
18436;BME280;9346;52.006;4.720;2022-12-22T05:59:04;100253.16;;;9.57;100.00
18436;BME280;9346;52.006;4.720;2022-12-22T06:01:32;100247.66;;;9.57;100.00
18436;BME280;9346;52.006;4.720;2022-12-22T06:04:00;100255.91;;;9.57;100.00
18436;BME280;9346;52.006;4.720;2022-12-22T06:06:27;100254.84;;;9.58;100.00
18436;BME280;9346;52.006;4.720;2022-12-22T06:08:54;100255.91;;;9.57;100.00
18436;BME280;9346;52.006;4.720;2022-12-22T06:11:21;100261.97;;;9.54;100.00
18436;BME280;9346;52.006;4.720;2022-12-22T06:13:48;100267.47;;;9.54;100.00
18436;BME280;9346;52.006;4.720;2022-12-22T06:16:15;100274.13;;;9.48;100.00
18436;BME280;9346;52.006;4.720;2022-12-22T06:18:43;100269.47;;;9.43;100.00
18436;BME280;9346;52.006;4.720;2022-12-22T06:21:10;100274.41;;;9.41;100.00
18436;BME280;9346;52.006;4.720;2022-12-22T06:23:37;100286.50;;;9.40;100.00
18436;BME280;9346;52.006;4.720;2022-12-22T06:26:04;100286.78;;;9.34;100.00
18436;BME280;9346;52.006;4.720;2022-12-22T06:28:31;100293.94;;;9.30;100.00
18436;BME280;9346;52.006;4.720;2022-12-22T06:30:58;100294.50;;;9.27;100.00
18436;BME280;9346;52.006;4.720;2022-12-22T06:33:25;100305.50;;;9.27;100.00
18436;BME280;9346;52.006;4.720;2022-12-22T06:35:54;100304.13;;;9.24;100.00
18436;BME280;9346;52.006;4.720;2022-12-22T06:38:21;100307.69;;;9.25;100.00
18436;BME280;9346;52.006;4.720;2022-12-22T06:40:48;100312.63;;;9.28;100.00
18436;BME280;9346;52.006;4.720;2022-12-22T06:43:15;100319.53;;;9.30;100.00
18436;BME280;9346;52.006;4.720;2022-12-22T06:45:42;100320.88;;;9.28;100.00
18436;BME280;9346;52.006;4.720;2022-12-22T06:48:10;100317.03;;;9.24;100.00
18436;BME280;9346;52.006;4.720;2022-12-22T06:50:37;100318.72;;;9.20;100.00
18436;BME280;9346;52.006;4.720;2022-12-22T06:53:07;100325.31;;;9.19;100.00
18436;BME280;9346;52.006;4.720;2022-12-22T06:55:35;100327.22;;;9.18;100.00
18436;BME280;9346;52.006;4.720;2022-12-22T06:58:02;100324.75;;;9.17;100.00
18436;BME280;9346;52.006;4.720;2022-12-22T07:00:29;100328.34;;;9.17;100.00
18436;BME280;9346;52.006;4.720;2022-12-22T07:02:56;100339.06;;;9.19;100.00
18436;BME280;9346;52.006;4.720;2022-12-22T07:05:23;100329.44;;;9.21;100.00
18436;BME280;9346;52.006;4.720;2022-12-22T07:07:51;100327.50;;;9.22;100.00
18436;BME280;9346;52.006;4.720;2022-12-22T07:10:20;100348.91;;;9.25;100.00
18436;BME280;9346;52.006;4.720;2022-12-22T07:13:07;100353.31;;;9.26;100.00
18436;BME280;9346;52.006;4.720;2022-12-22T07:15:45;100358.28;;;9.24;100.00
18436;BME280;9346;52.006;4.720;2022-12-22T07:18:12;100362.69;;;9.20;100.00
18436;BME280;9346;52.006;4.720;2022-12-22T07:20:39;100355.53;;;9.19;100.00
18436;BME280;9346;52.006;4.720;2022-12-22T07:23:06;100356.06;;;9.21;100.00
18436;BME280;9346;52.006;4.720;2022-12-22T07:25:34;100359.66;;;9.21;100.00
18436;BME280;9346;52.006;4.720;2022-12-22T07:28:01;100359.38;;;9.23;100.00
18436;BME280;9346;52.006;4.720;2022-12-22T07:30:28;100372.28;;;9.22;100.00
18436;BME280;9346;52.006;4.720;2022-12-22T07:32:55;100378.06;;;9.21;100.00
18436;BME280;9346;52.006;4.720;2022-12-22T07:35:22;100385.22;;;9.22;100.00
18436;BME280;9346;52.006;4.720;2022-12-22T07:37:50;100387.41;;;9.20;100.00
18436;BME280;9346;52.006;4.720;2022-12-22T07:40:16;100382.72;;;9.15;100.00
18436;BME280;9346;52.006;4.720;2022-12-22T07:42:45;100390.13;;;9.14;100.00
18436;BME280;9346;52.006;4.720;2022-12-22T07:45:11;100393.44;;;9.11;100.00
18436;BME280;9346;52.006;4.720;2022-12-22T07:47:39;100403.63;;;9.11;100.00
18436;BME280;9346;52.006;4.720;2022-12-22T07:50:08;100409.41;;;9.09;100.00
18436;BME280;9346;52.006;4.720;2022-12-22T07:52:50;100394.28;;;9.07;100.00
18436;BME280;9346;52.006;4.720;2022-12-22T07:55:17;100398.38;;;9.04;100.00
18436;BME280;9346;52.006;4.720;2022-12-22T07:57:45;100387.94;;;9.01;100.00
18436;BME280;9346;52.006;4.720;2022-12-22T08:00:14;100389.06;;;9.00;100.00
18436;BME280;9346;52.006;4.720;2022-12-22T08:02:41;100388.50;;;8.98;100.00
18436;BME280;9346;52.006;4.720;2022-12-22T08:05:10;100401.69;;;8.96;100.00
18436;BME280;9346;52.006;4.720;2022-12-22T08:07:37;100401.41;;;8.93;100.00
18436;BME280;9346;52.006;4.720;2022-12-22T08:10:04;100404.69;;;8.90;100.00
18436;BME280;9346;52.006;4.720;2022-12-22T08:12:32;100405.81;;;8.89;100.00
18436;BME280;9346;52.006;4.720;2022-12-22T08:15:00;100414.88;;;8.84;100.00
18436;BME280;9346;52.006;4.720;2022-12-22T08:17:28;100419.53;;;8.84;100.00
18436;BME280;9346;52.006;4.720;2022-12-22T08:19:55;100429.97;;;8.82;100.00
18436;BME280;9346;52.006;4.720;2022-12-22T08:22:22;100442.03;;;8.81;100.00
18436;BME280;9346;52.006;4.720;2022-12-22T08:24:50;100449.75;;;8.79;100.00
18436;BME280;9346;52.006;4.720;2022-12-22T08:27:19;100447.53;;;8.76;100.00
18436;BME280;9346;52.006;4.720;2022-12-22T08:29:51;100458.53;;;8.76;100.00
18436;BME280;9346;52.006;4.720;2022-12-22T08:32:22;100462.91;;;8.72;100.00
18436;BME280;9346;52.006;4.720;2022-12-22T08:34:50;100468.09;;;8.68;100.00
18436;BME280;9346;52.006;4.720;2022-12-22T08:37:20;100460.41;;;8.65;100.00
18436;BME280;9346;52.006;4.720;2022-12-22T08:39:50;100455.72;;;8.61;100.00
18436;BME280;9346;52.006;4.720;2022-12-22T08:42:19;100465.59;;;8.57;100.00
18436;BME280;9346;52.006;4.720;2022-12-22T08:44:47;100462.28;;;8.50;100.00
18436;BME280;9346;52.006;4.720;2022-12-22T08:47:17;100466.41;;;8.47;100.00
18436;BME280;9346;52.006;4.720;2022-12-22T08:49:46;100466.69;;;8.46;100.00
18436;BME280;9346;52.006;4.720;2022-12-22T08:52:14;100471.88;;;8.42;100.00
18436;BME280;9346;52.006;4.720;2022-12-22T08:54:41;100482.81;;;8.37;100.00
18436;BME280;9346;52.006;4.720;2022-12-22T08:57:08;100482.28;;;8.35;100.00
18436;BME280;9346;52.006;4.720;2022-12-22T08:59:35;100487.19;;;8.33;100.00
18436;BME280;9346;52.006;4.720;2022-12-22T09:02:02;100485.81;;;8.31;100.00
18436;BME280;9346;52.006;4.720;2022-12-22T09:04:31;100480.03;;;8.27;100.00
18436;BME280;9346;52.006;4.720;2022-12-22T09:07:00;100480.88;;;8.28;100.00
18436;BME280;9346;52.006;4.720;2022-12-22T09:09:30;100491.00;;;8.27;100.00
18436;BME280;9346;52.006;4.720;2022-12-22T09:11:58;100488.53;;;8.26;100.00
18436;BME280;9346;52.006;4.720;2022-12-22T09:14:26;100490.72;;;8.24;100.00
18436;BME280;9346;52.006;4.720;2022-12-22T09:16:53;100489.91;;;8.23;100.00
18436;BME280;9346;52.006;4.720;2022-12-22T09:19:20;100507.19;;;8.24;100.00
18436;BME280;9346;52.006;4.720;2022-12-22T09:21:47;100506.94;;;8.25;100.00
18436;BME280;9346;52.006;4.720;2022-12-22T09:24:16;100500.59;;;8.25;100.00
18436;BME280;9346;52.006;4.720;2022-12-22T09:26:43;100496.75;;;8.26;100.00
18436;BME280;9346;52.006;4.720;2022-12-22T09:29:10;100493.22;;;8.25;100.00
18436;BME280;9346;52.006;4.720;2022-12-22T09:31:39;100501.97;;;8.27;100.00
18436;BME280;9346;52.006;4.720;2022-12-22T09:34:06;100499.81;;;8.29;100.00
18436;BME280;9346;52.006;4.720;2022-12-22T09:36:34;100505.88;;;8.36;100.00
18436;BME280;9346;52.006;4.720;2022-12-22T09:39:04;100514.13;;;8.41;100.00
18436;BME280;9346;52.006;4.720;2022-12-22T09:41:35;100519.94;;;8.50;100.00
18436;BME280;9346;52.006;4.720;2022-12-22T09:44:04;100524.06;;;8.52;100.00
18436;BME280;9346;52.006;4.720;2022-12-22T09:46:34;100535.59;;;8.54;100.00
18436;BME280;9346;52.006;4.720;2022-12-22T09:49:03;100529.28;;;8.54;100.00
18436;BME280;9346;52.006;4.720;2022-12-22T09:51:33;100528.16;;;8.55;100.00
18436;BME280;9346;52.006;4.720;2022-12-22T09:54:05;100529.03;;;8.60;100.00
18436;BME280;9346;52.006;4.720;2022-12-22T09:56:34;100529.31;;;8.64;100.00
18436;BME280;9346;52.006;4.720;2022-12-22T09:59:07;100538.38;;;8.64;100.00
18436;BME280;9346;52.006;4.720;2022-12-22T10:01:45;100540.03;;;8.65;100.00
18436;BME280;9346;52.006;4.720;2022-12-22T10:04:21;100537.28;;;8.65;100.00
18436;BME280;9346;52.006;4.720;2022-12-22T10:06:59;100536.75;;;8.68;100.00
18436;BME280;9346;52.006;4.720;2022-12-22T10:09:29;100540.88;;;8.71;100.00
18436;BME280;9346;52.006;4.720;2022-12-22T10:12:01;100537.84;;;8.72;100.00
18436;BME280;9346;52.006;4.720;2022-12-22T10:14:33;100538.16;;;8.76;100.00
18436;BME280;9346;52.006;4.720;2022-12-22T10:17:17;100538.16;;;8.81;100.00
18436;BME280;9346;52.006;4.720;2022-12-22T10:19:45;100525.25;;;8.81;100.00
18436;BME280;9346;52.006;4.720;2022-12-22T10:22:21;100542.31;;;8.83;100.00
18436;BME280;9346;52.006;4.720;2022-12-22T10:24:51;100541.72;;;8.81;100.00
18436;BME280;9346;52.006;4.720;2022-12-22T10:27:20;100532.38;;;8.82;100.00
18436;BME280;9346;52.006;4.720;2022-12-22T10:29:47;100547.78;;;8.88;100.00
18436;BME280;9346;52.006;4.720;2022-12-22T10:32:16;100535.47;;;8.91;100.00
18436;BME280;9346;52.006;4.720;2022-12-22T10:34:59;100540.13;;;8.90;100.00
18436;BME280;9346;52.006;4.720;2022-12-22T10:37:31;100542.88;;;8.90;100.00
18436;BME280;9346;52.006;4.720;2022-12-22T10:40:12;100548.66;;;8.94;100.00
18436;BME280;9346;52.006;4.720;2022-12-22T10:42:45;100552.22;;;8.94;100.00
18436;BME280;9346;52.006;4.720;2022-12-22T10:45:17;100547.56;;;8.95;100.00
18436;BME280;9346;52.006;4.720;2022-12-22T10:47:47;100554.97;;;8.94;100.00
18436;BME280;9346;52.006;4.720;2022-12-22T10:50:14;100566.78;;;9.00;100.00
18436;BME280;9346;52.006;4.720;2022-12-22T10:52:49;100575.31;;;9.03;100.00
18436;BME280;9346;52.006;4.720;2022-12-22T10:55:18;100569.28;;;9.06;100.00
18436;BME280;9346;52.006;4.720;2022-12-22T10:57:49;100570.13;;;9.07;100.00
18436;BME280;9346;52.006;4.720;2022-12-22T11:00:27;100574.25;;;9.09;100.00
18436;BME280;9346;52.006;4.720;2022-12-22T11:02:55;100572.28;;;9.10;100.00
18436;BME280;9346;52.006;4.720;2022-12-22T11:05:22;100580.56;;;9.15;100.00
18436;BME280;9346;52.006;4.720;2022-12-22T11:07:50;100579.19;;;9.18;100.00
18436;BME280;9346;52.006;4.720;2022-12-22T11:10:26;100581.97;;;9.23;100.00
18436;BME280;9346;52.006;4.720;2022-12-22T11:13:06;100572.06;;;9.22;100.00
18436;BME280;9346;52.006;4.720;2022-12-22T11:15:40;100574.81;;;9.22;100.00
18436;BME280;9346;52.006;4.720;2022-12-22T11:18:20;100580.84;;;9.24;100.00
18436;BME280;9346;52.006;4.720;2022-12-22T11:20:58;100584.16;;;9.31;100.00
18436;BME280;9346;52.006;4.720;2022-12-22T11:23:33;100586.66;;;9.32;100.00
18436;BME280;9346;52.006;4.720;2022-12-22T11:26:09;100591.59;;;9.35;100.00
18436;BME280;9346;52.006;4.720;2022-12-22T11:29:02;100580.88;;;9.34;100.00
18436;BME280;9346;52.006;4.720;2022-12-22T11:31:49;100591.88;;;9.34;100.00
18436;BME280;9346;52.006;4.720;2022-12-22T11:34:31;100592.41;;;9.31;100.00
18436;BME280;9346;52.006;4.720;2022-12-22T11:37:11;100590.47;;;9.26;100.00
18436;BME280;9346;52.006;4.720;2022-12-22T11:39:46;100588.00;;;9.20;100.00
18436;BME280;9346;52.006;4.720;2022-12-22T11:42:32;100581.94;;;9.13;100.00
18436;BME280;9346;52.006;4.720;2022-12-22T11:45:18;100586.88;;;9.05;100.00
18436;BME280;9346;52.006;4.720;2022-12-22T11:47:56;100591.78;;;8.98;100.00
18436;BME280;9346;52.006;4.720;2022-12-22T11:50:35;100592.31;;;8.90;100.00
18436;BME280;9346;52.006;4.720;2022-12-22T11:53:15;100576.34;;;8.82;100.00
18436;BME280;9346;52.006;4.720;2022-12-22T11:56:05;100581.25;;;8.75;100.00
18436;BME280;9346;52.006;4.720;2022-12-22T11:58:46;100578.78;;;8.69;100.00
18436;BME280;9346;52.006;4.720;2022-12-22T12:01:33;100569.69;;;8.63;100.00
18436;BME280;9346;52.006;4.720;2022-12-22T12:04:38;100571.56;;;8.58;100.00
18436;BME280;9346;52.006;4.720;2022-12-22T12:07:21;100567.41;;;8.50;100.00
18436;BME280;9346;52.006;4.720;2022-12-22T12:09:57;100568.22;;;8.46;100.00
18436;BME280;9346;52.006;4.720;2022-12-22T12:12:36;100556.66;;;8.39;100.00
18436;BME280;9346;52.006;4.720;2022-12-22T12:15:17;100562.97;;;8.39;100.00
18436;BME280;9346;52.006;4.720;2022-12-22T12:18:01;100563.53;;;8.41;100.00
18436;BME280;9346;52.006;4.720;2022-12-22T12:20:43;100571.50;;;8.43;100.00
18436;BME280;9346;52.006;4.720;2022-12-22T12:23:32;100570.97;;;8.46;100.00
18436;BME280;9346;52.006;4.720;2022-12-22T12:26:07;100555.84;;;8.43;100.00
18436;BME280;9346;52.006;4.720;2022-12-22T12:28:45;100556.69;;;8.44;100.00
18436;BME280;9346;52.006;4.720;2022-12-22T12:31:16;100560.25;;;8.44;100.00
18436;BME280;9346;52.006;4.720;2022-12-22T12:33:49;100559.16;;;8.45;100.00
18436;BME280;9346;52.006;4.720;2022-12-22T12:36:22;100559.16;;;8.45;100.00
18436;BME280;9346;52.006;4.720;2022-12-22T12:38:56;100550.41;;;8.48;100.00
18436;BME280;9346;52.006;4.720;2022-12-22T12:41:32;100550.94;;;8.50;100.00
18436;BME280;9346;52.006;4.720;2022-12-22T12:44:03;100552.59;;;8.51;100.00
18436;BME280;9346;52.006;4.720;2022-12-22T12:46:52;100548.22;;;8.55;100.00
18436;BME280;9346;52.006;4.720;2022-12-22T12:53:03;100549.34;;;8.59;100.00
18436;BME280;9346;52.006;4.720;2022-12-22T12:55:32;100543.56;;;8.61;100.00
18436;BME280;9346;52.006;4.720;2022-12-22T12:58:02;100545.78;;;8.64;100.00
18436;BME280;9346;52.006;4.720;2022-12-22T13:00:44;100546.34;;;8.66;100.00
18436;BME280;9346;52.006;4.720;2022-12-22T13:03:35;100548.28;;;8.70;100.00
18436;BME280;9346;52.006;4.720;2022-12-22T13:06:05;100545.81;;;8.74;100.00
18436;BME280;9346;52.006;4.720;2022-12-22T13:09:09;100537.63;;;8.79;100.00
18436;BME280;9346;52.006;4.720;2022-12-22T13:11:37;100539.53;;;8.78;100.00
18436;BME280;9346;52.006;4.720;2022-12-22T13:14:04;100532.97;;;8.79;100.00
18436;BME280;9346;52.006;4.720;2022-12-22T13:16:34;100518.94;;;8.81;100.00
18436;BME280;9346;52.006;4.720;2022-12-22T13:21:45;100522.00;;;8.89;100.00
18436;BME280;9346;52.006;4.720;2022-12-22T13:24:31;100519.78;;;8.91;100.00
18436;BME280;9346;52.006;4.720;2022-12-22T13:27:04;100515.97;;;8.92;100.00
18436;BME280;9346;52.006;4.720;2022-12-22T13:29:40;100511.00;;;8.94;100.00
18436;BME280;9346;52.006;4.720;2022-12-22T13:32:18;100509.91;;;8.95;100.00
18436;BME280;9346;52.006;4.720;2022-12-22T13:34:53;100501.38;;;8.97;100.00
18436;BME280;9346;52.006;4.720;2022-12-22T13:37:25;100492.88;;;8.98;100.00
18436;BME280;9346;52.006;4.720;2022-12-22T13:40:24;100493.44;;;9.00;100.00
18436;BME280;9346;52.006;4.720;2022-12-22T13:42:53;100485.19;;;9.00;100.00
18436;BME280;9346;52.006;4.720;2022-12-22T13:45:34;100484.09;;;9.01;100.00